createdAt,value
2022-10-10T00:01:58.172Z,18.33
2022-10-10T00:04:52.128Z,18.55
2022-10-10T00:07:46.110Z,18.60
2022-10-10T00:10:40.106Z,19.13
2022-10-10T00:13:29.199Z,18.92
2022-10-10T00:16:11.163Z,18.38
2022-10-10T00:19:05.155Z,18.98
2022-10-10T00:21:52.113Z,19.08
2022-10-10T00:24:32.126Z,19.10
2022-10-10T00:27:21.450Z,18.27
2022-10-10T00:29:54.183Z,19.95
2022-10-10T00:32:41.163Z,18.30
2022-10-10T00:35:21.159Z,19.05
2022-10-10T00:38:15.160Z,18.38
2022-10-10T00:41:03.157Z,18.83
2022-10-10T00:43:37.226Z,18.90
2022-10-10T00:46:24.141Z,17.48
2022-10-10T00:48:57.342Z,17.88
2022-10-10T00:51:44.149Z,18.42
2022-10-10T00:54:20.206Z,17.60
2022-10-10T00:57:12.247Z,17.55
2022-10-10T00:59:48.210Z,18.88
2022-10-10T01:02:35.168Z,17.70
2022-10-10T01:05:08.214Z,17.98
2022-10-10T01:07:55.162Z,17.77
2022-10-10T01:10:36.190Z,18.10
2022-10-10T01:13:41.158Z,16.63
2022-10-10T01:16:22.226Z,16.63
2022-10-10T01:19:33.156Z,17.83
2022-10-10T01:22:18.207Z,17.95
2022-10-10T01:25:11.174Z,18.90
2022-10-10T01:27:48.200Z,19.25
2022-10-10T01:30:36.160Z,16.42
2022-10-10T01:33:38.215Z,17.88
2022-10-10T01:36:32.171Z,17.27
2022-10-10T01:39:31.169Z,17.83
2022-10-10T01:42:33.176Z,18.00
2022-10-10T01:45:27.152Z,19.38
2022-10-10T01:48:14.132Z,17.45
2022-10-10T01:51:13.167Z,17.83
2022-10-10T01:54:28.133Z,18.35
2022-10-10T01:57:23.158Z,19.45
2022-10-10T02:00:20.161Z,20.02
2022-10-10T02:03:20.157Z,19.13
2022-10-10T02:06:03.411Z,19.05
2022-10-10T02:09:00.169Z,18.63
2022-10-10T02:11:38.242Z,19.30
2022-10-10T02:14:29.177Z,19.15
2022-10-10T02:17:15.179Z,34.28
2022-10-10T02:20:06.172Z,19.48
2022-10-10T02:22:40.299Z,19.85
2022-10-10T02:25:36.173Z,27.80
2022-10-10T02:28:22.261Z,19.45
2022-10-10T02:31:20.172Z,19.00
2022-10-10T02:34:17.203Z,20.08
2022-10-10T02:36:56.236Z,24.73
2022-10-10T02:39:47.177Z,18.55
2022-10-10T02:42:24.265Z,17.42
2022-10-10T02:45:12.245Z,18.15
2022-10-10T02:47:45.268Z,19.55
2022-10-10T02:50:33.160Z,18.60
2022-10-10T02:53:14.163Z,25.98
2022-10-10T02:56:01.179Z,18.83
2022-10-10T02:58:41.161Z,17.10
2022-10-10T03:01:28.213Z,17.80
2022-10-10T03:04:01.814Z,20.38
2022-10-10T03:06:48.187Z,17.20
2022-10-10T03:09:21.281Z,18.63
2022-10-10T03:12:08.170Z,18.17
2022-10-10T03:14:41.334Z,18.88
2022-10-10T03:17:35.190Z,18.30
2022-10-10T03:20:29.196Z,18.77
2022-10-10T03:23:23.203Z,21.90
2022-10-10T03:26:11.221Z,17.27
2022-10-10T03:28:44.807Z,18.10
2022-10-10T03:31:31.193Z,20.92
2022-10-10T03:34:05.286Z,30.50
2022-10-10T03:36:52.206Z,19.27
2022-10-10T03:39:25.275Z,19.58
2022-10-10T03:42:12.248Z,18.60
2022-10-10T03:44:45.259Z,26.85
2022-10-10T03:47:32.208Z,16.60
2022-10-10T03:50:05.280Z,16.60
2022-10-10T03:52:52.487Z,16.30
2022-10-10T03:55:33.215Z,22.80
2022-10-10T03:58:27.200Z,27.10
2022-10-10T04:01:14.345Z,17.67
2022-10-10T04:03:51.897Z,21.13
2022-10-10T04:06:39.195Z,26.83
2022-10-10T04:09:20.269Z,20.48
2022-10-10T04:12:07.209Z,19.95
2022-10-10T04:14:40.307Z,20.25
2022-10-10T04:17:34.258Z,18.17
2022-10-10T04:20:28.265Z,22.27
2022-10-10T04:23:15.201Z,22.30
2022-10-10T04:25:48.513Z,20.08
2022-10-10T04:28:35.223Z,22.27
2022-10-10T04:31:08.318Z,16.38
2022-10-10T04:33:55.223Z,16.55
2022-10-10T04:36:35.214Z,21.15
2022-10-10T04:39:29.255Z,18.33
2022-10-10T04:42:23.248Z,18.90
2022-10-10T04:45:13.274Z,23.25
2022-10-10T04:47:53.214Z,23.10
2022-10-10T04:50:42.287Z,24.83
2022-10-10T04:53:15.285Z,23.92
2022-10-10T04:56:02.259Z,18.42
2022-10-10T04:58:42.252Z,26.52
2022-10-10T05:01:36.322Z,32.25
2022-10-10T05:04:23.230Z,29.50
2022-10-10T05:07:03.215Z,17.88
2022-10-10T05:09:57.221Z,27.48
2022-10-10T05:12:51.460Z,22.70
2022-10-10T05:15:48.257Z,21.63
2022-10-10T05:18:44.257Z,18.75
2022-10-10T05:21:31.233Z,19.23
2022-10-10T05:24:04.316Z,17.67
2022-10-10T05:26:51.227Z,37.38
2022-10-10T05:29:31.178Z,49.65
2022-10-10T05:32:25.242Z,16.88
2022-10-10T05:35:12.356Z,28.08
2022-10-10T05:37:45.326Z,18.55
2022-10-10T05:40:32.288Z,23.73
2022-10-10T05:43:05.326Z,31.35
2022-10-10T05:45:52.258Z,18.00
2022-10-10T05:48:25.296Z,16.90
2022-10-10T05:51:13.329Z,45.15
2022-10-10T05:53:53.243Z,16.92
2022-10-10T05:56:47.254Z,24.63
2022-10-10T05:59:36.252Z,22.48
2022-10-10T06:02:18.575Z,29.45
2022-10-10T06:05:05.241Z,24.52
2022-10-10T06:07:59.813Z,28.80
2022-10-10T06:10:48.261Z,18.65
2022-10-10T06:13:30.264Z,20.42
2022-10-10T06:16:24.259Z,21.27
2022-10-10T06:19:18.272Z,15.00
2022-10-10T06:22:05.254Z,16.02
2022-10-10T06:24:48.442Z,18.63
2022-10-10T06:27:44.282Z,21.73
2022-10-10T06:30:38.253Z,24.83
2022-10-10T06:33:26.265Z,18.50
2022-10-10T06:36:00.398Z,15.65
2022-10-10T06:38:49.260Z,16.40
2022-10-10T06:41:29.263Z,16.85
2022-10-10T06:44:23.254Z,17.27
2022-10-10T06:47:10.261Z,20.83
2022-10-10T06:49:43.366Z,23.83
2022-10-10T06:52:30.253Z,17.42
2022-10-10T06:55:03.344Z,16.20
2022-10-10T06:57:50.281Z,18.05
2022-10-10T07:00:30.294Z,18.60
2022-10-10T07:03:19.267Z,16.80
2022-10-10T07:05:56.366Z,20.88
2022-10-10T07:08:44.281Z,16.50
2022-10-10T07:11:17.369Z,15.95
2022-10-10T07:14:04.284Z,17.38
2022-10-10T07:16:37.335Z,18.13
2022-10-10T07:19:25.256Z,19.05
2022-10-10T07:22:05.289Z,17.88
2022-10-10T07:24:52.287Z,17.40
2022-10-10T07:27:32.309Z,21.40
2022-10-10T07:30:26.282Z,22.55
2022-10-10T07:33:13.246Z,17.95
2022-10-10T07:35:46.340Z,18.83
2022-10-10T07:38:33.291Z,17.65
2022-10-10T07:41:06.581Z,16.77
2022-10-10T07:43:53.277Z,20.02
2022-10-10T07:46:34.257Z,19.58
2022-10-10T07:49:21.318Z,19.02
2022-10-10T07:51:58.607Z,20.02
2022-10-10T07:54:49.298Z,21.88
2022-10-10T07:57:29.303Z,22.63
2022-10-10T08:00:24.326Z,20.95
2022-10-10T08:03:18.471Z,22.95
2022-10-10T08:06:12.305Z,20.52
2022-10-10T08:09:06.298Z,19.73
2022-10-10T08:11:53.289Z,21.50
2022-10-10T08:14:26.358Z,19.63
2022-10-10T08:17:13.297Z,18.65
2022-10-10T08:19:46.414Z,18.92
2022-10-10T08:22:33.284Z,18.48
2022-10-10T08:25:06.364Z,16.73
2022-10-10T08:27:53.296Z,19.33
2022-10-10T08:30:26.367Z,18.23
2022-10-10T08:33:13.298Z,18.10
2022-10-10T08:35:53.293Z,18.17
2022-10-10T08:38:40.305Z,17.25
2022-10-10T08:41:48.313Z,17.10
2022-10-10T08:44:46.288Z,18.83
2022-10-10T08:47:26.425Z,16.67
2022-10-10T08:50:28.309Z,17.48
2022-10-10T08:53:17.370Z,18.80
2022-10-10T08:56:04.311Z,17.55
2022-10-10T08:58:43.396Z,15.27
2022-10-10T09:02:17.561Z,18.45
2022-10-10T09:04:35.816Z,16.17
2022-10-10T09:07:35.313Z,15.63
2022-10-10T09:10:27.292Z,14.65
2022-10-10T09:13:44.334Z,18.23
2022-10-10T09:16:55.315Z,16.08
2022-10-10T09:20:06.347Z,16.75
2022-10-10T09:23:06.315Z,18.02
2022-10-10T09:25:52.356Z,17.77
2022-10-10T09:28:51.370Z,16.40
2022-10-10T09:31:54.342Z,17.23
2022-10-10T09:34:48.324Z,16.98
2022-10-10T09:37:46.173Z,17.63
2022-10-10T09:40:51.328Z,17.92
2022-10-10T09:43:26.391Z,17.88
2022-10-10T09:46:13.354Z,16.63
2022-10-10T09:48:48.456Z,16.63
2022-10-10T09:51:37.343Z,17.73
2022-10-10T09:54:13.393Z,19.52
2022-10-10T09:57:02.348Z,16.73
2022-10-10T09:59:50.440Z,16.33
2022-10-10T10:02:37.315Z,16.67
2022-10-10T10:05:25.409Z,16.45
2022-10-10T10:08:23.319Z,14.32
2022-10-10T10:10:58.466Z,16.50
2022-10-10T10:13:45.344Z,13.70
2022-10-10T10:16:27.356Z,14.68
2022-10-10T10:19:51.355Z,14.95
2022-10-10T10:22:45.351Z,14.15
2022-10-10T10:25:37.487Z,14.55
2022-10-10T10:28:28.443Z,13.95
2022-10-10T10:31:05.527Z,15.45
2022-10-10T10:34:05.343Z,14.88
2022-10-10T10:37:04.441Z,14.05
2022-10-10T10:40:11.349Z,16.58
2022-10-10T10:42:54.387Z,15.70
2022-10-10T10:45:48.379Z,13.88
2022-10-10T10:48:47.376Z,14.48
2022-10-10T10:51:56.372Z,14.02
2022-10-10T10:55:01.365Z,12.90
2022-10-10T11:01:44.767Z,13.65
2022-10-10T11:05:24.798Z,14.07
2022-10-10T11:08:03.348Z,12.73
2022-10-10T11:11:26.377Z,11.98
2022-10-10T11:14:05.546Z,14.50
2022-10-10T11:17:05.388Z,13.15
2022-10-10T11:19:56.789Z,14.18
2022-10-10T11:22:57.397Z,16.17
2022-10-10T11:25:37.574Z,16.75
2022-10-10T11:28:40.465Z,18.33
2022-10-10T11:31:27.455Z,16.33
2022-10-10T11:34:21.368Z,16.63
2022-10-10T11:37:02.391Z,17.95
2022-10-10T11:40:09.377Z,15.85
2022-10-10T11:43:01.401Z,18.33
2022-10-10T11:45:40.467Z,18.38
2022-10-10T11:48:34.400Z,17.05
2022-10-10T11:51:16.076Z,13.20
2022-10-10T11:54:08.412Z,15.88
2022-10-10T11:56:47.546Z,17.73
2022-10-10T11:59:39.415Z,19.27
2022-10-10T12:02:27.879Z,17.77
2022-10-10T12:05:26.398Z,14.38
2022-10-10T12:08:24.489Z,15.60
2022-10-10T12:11:32.433Z,15.40
2022-10-10T12:14:07.803Z,15.70
2022-10-10T12:16:55.422Z,16.90
2022-10-10T12:19:37.415Z,15.32
2022-10-10T12:22:40.405Z,15.80
2022-10-10T12:25:28.391Z,15.73
2022-10-10T12:28:12.558Z,16.38
2022-10-10T12:30:59.704Z,12.32
2022-10-10T12:33:40.444Z,15.88
2022-10-10T12:36:34.406Z,18.45
2022-10-10T12:39:21.401Z,14.85
2022-10-10T12:41:54.483Z,13.60
2022-10-10T12:44:41.391Z,12.73
2022-10-10T12:47:35.878Z,15.45
2022-10-10T12:50:40.438Z,14.50
2022-10-10T12:53:20.603Z,16.45
2022-10-10T12:56:03.433Z,14.35
2022-10-10T12:58:47.443Z,14.32
2022-10-10T13:01:43.488Z,13.10
2022-10-10T13:04:39.423Z,14.52
2022-10-10T13:07:28.457Z,16.42
2022-10-10T13:10:12.603Z,12.68
2022-10-10T13:13:33.461Z,15.07
2022-10-10T13:16:20.436Z,15.57
2022-10-10T13:19:14.453Z,16.75
2022-10-10T13:22:02.436Z,15.45
2022-10-10T13:24:39.527Z,17.02
2022-10-10T13:27:34.447Z,15.02
2022-10-10T13:30:08.634Z,15.80
2022-10-10T13:32:56.459Z,14.35
2022-10-10T13:35:40.423Z,13.73
2022-10-10T13:38:32.468Z,16.27
2022-10-10T13:41:07.508Z,13.32
2022-10-10T13:43:54.438Z,13.15
2022-10-10T13:46:39.649Z,16.50
2022-10-10T13:49:36.447Z,17.17
2022-10-10T13:52:28.538Z,14.63
2022-10-10T13:55:42.489Z,15.90
2022-10-10T13:58:23.463Z,13.68
2022-10-10T14:01:11.473Z,14.52
2022-10-10T14:03:44.517Z,15.95
2022-10-10T14:06:34.445Z,14.40
2022-10-10T14:09:26.543Z,14.07
2022-10-10T14:12:30.491Z,14.63
2022-10-10T14:15:12.462Z,14.70
2022-10-10T14:18:06.471Z,14.00
2022-10-10T14:21:02.622Z,13.70
2022-10-10T14:23:56.479Z,14.80
2022-10-10T14:26:44.490Z,12.30
2022-10-10T14:29:22.655Z,15.48
2022-10-10T14:32:09.458Z,15.70
2022-10-10T14:34:42.542Z,14.95
2022-10-10T14:37:34.481Z,14.40
2022-10-10T14:40:07.555Z,13.85
2022-10-10T14:42:54.465Z,14.82
2022-10-10T14:45:27.612Z,15.00
2022-10-10T14:48:14.470Z,13.52
2022-10-10T14:50:51.298Z,14.20
2022-10-10T14:53:38.494Z,15.32
2022-10-10T14:56:11.581Z,13.95
2022-10-10T14:58:58.472Z,13.43
2022-10-10T15:01:31.544Z,16.88
2022-10-10T15:04:18.508Z,15.68
2022-10-10T15:07:12.403Z,14.82
2022-10-10T15:13:13.501Z,16.17
2022-10-10T15:15:46.560Z,16.38
2022-10-10T15:18:53.582Z,17.17
2022-10-10T15:21:41.489Z,15.48
2022-10-10T15:24:14.585Z,16.40
2022-10-10T15:27:01.512Z,17.75
2022-10-10T15:29:41.549Z,16.38
2022-10-10T15:32:28.497Z,14.57
2022-10-10T15:35:08.485Z,16.20
2022-10-10T15:37:55.492Z,15.45
2022-10-10T15:40:30.627Z,15.15
2022-10-10T15:43:17.520Z,17.05
2022-10-10T15:45:55.832Z,16.17
2022-10-10T15:48:42.528Z,16.73
2022-10-10T15:51:22.502Z,17.25
2022-10-10T15:54:09.513Z,14.85
2022-10-10T15:56:42.614Z,16.35
2022-10-10T15:59:29.569Z,17.95
2022-10-10T16:02:02.625Z,14.80
2022-10-10T16:04:49.533Z,15.68
2022-10-10T16:07:29.239Z,16.00
2022-10-10T16:10:17.518Z,18.00
2022-10-10T16:12:57.531Z,16.23
2022-10-10T16:15:51.527Z,15.38
2022-10-10T16:18:46.512Z,20.08
2022-10-10T16:21:40.524Z,15.43
2022-10-10T16:24:27.531Z,15.98
2022-10-10T16:27:02.103Z,18.40
2022-10-10T16:29:48.531Z,16.35
2022-10-10T16:32:21.584Z,15.60
2022-10-10T16:35:08.539Z,19.10
2022-10-10T16:37:48.567Z,18.13
2022-10-10T16:40:42.531Z,13.80
2022-10-10T16:43:29.538Z,17.20
2022-10-10T16:46:06.797Z,21.48
2022-10-10T16:48:53.526Z,21.25
2022-10-10T16:51:28.765Z,64.50
2022-10-10T16:54:15.541Z,61.70
2022-10-10T16:56:48.683Z,49.13
2022-10-10T16:59:35.521Z,49.65
2022-10-10T17:02:15.546Z,55.85
2022-10-10T17:05:04.560Z,36.95
2022-10-10T17:07:44.561Z,33.75
2022-10-10T17:10:38.555Z,26.40
2022-10-10T17:13:25.563Z,24.05
2022-10-10T17:16:21.788Z,28.38
2022-10-10T17:19:14.520Z,23.70
2022-10-10T17:22:01.565Z,24.73
2022-10-10T17:24:34.645Z,27.85
2022-10-10T17:27:21.568Z,29.75
2022-10-10T17:29:54.744Z,30.67
2022-10-10T17:32:41.583Z,29.73
2022-10-10T17:35:16.621Z,36.90
2022-10-10T17:38:21.239Z,34.92
2022-10-10T17:41:11.569Z,35.67
2022-10-10T17:44:05.595Z,31.25
2022-10-10T17:46:59.863Z,31.80
2022-10-10T17:49:51.574Z,31.58
2022-10-10T17:52:25.256Z,37.00
2022-10-10T17:55:11.572Z,30.75
2022-10-10T17:57:51.560Z,35.58
2022-10-10T18:00:38.576Z,30.40
2022-10-10T18:03:11.616Z,28.42
2022-10-10T18:05:58.601Z,24.63
2022-10-10T18:08:38.580Z,26.95
2022-10-10T18:11:28.557Z,28.58
2022-10-10T18:14:09.570Z,21.08
2022-10-10T18:16:56.568Z,24.88
2022-10-10T18:19:29.807Z,23.38
2022-10-10T18:22:16.594Z,24.48
2022-10-10T18:24:56.586Z,27.88
2022-10-10T18:27:43.603Z,24.17
2022-10-10T18:30:17.638Z,25.42
2022-10-10T18:33:04.583Z,25.08
2022-10-10T18:35:44.592Z,25.58
2022-10-10T18:38:38.616Z,27.02
2022-10-10T18:41:39.581Z,25.15
2022-10-10T18:44:26.598Z,23.92
2022-10-10T18:47:02.109Z,23.48
2022-10-10T18:49:48.578Z,24.70
2022-10-10T18:52:28.611Z,30.98
2022-10-10T18:55:24.577Z,24.10
2022-10-10T18:58:11.585Z,24.52
2022-10-10T19:00:51.644Z,23.70
2022-10-10T19:03:38.603Z,23.92
2022-10-10T19:06:21.607Z,32.47
2022-10-10T19:09:09.590Z,24.05
2022-10-10T19:11:44.677Z,25.95
2022-10-10T19:14:31.585Z,23.88
2022-10-10T19:17:11.606Z,22.45
2022-10-10T19:20:05.606Z,31.40
2022-10-10T19:22:52.585Z,28.05
2022-10-10T19:25:33.614Z,29.50
2022-10-10T19:28:20.610Z,25.17
2022-10-10T19:30:54.687Z,30.35
2022-10-10T19:33:42.621Z,23.42
2022-10-10T19:36:18.727Z,26.00
2022-10-10T19:39:06.611Z,29.88
2022-10-10T19:41:46.585Z,35.17
2022-10-10T19:44:40.618Z,35.10
2022-10-10T19:47:34.604Z,32.13
2022-10-10T19:50:21.625Z,35.97
2022-10-10T19:53:04.899Z,34.05
2022-10-10T19:56:02.854Z,34.97
2022-10-10T19:58:43.633Z,33.28
2022-10-10T20:01:39.649Z,37.25
2022-10-10T20:04:33.617Z,31.05
2022-10-10T20:07:20.599Z,32.15
2022-10-10T20:10:00.629Z,32.45
2022-10-10T20:12:47.619Z,37.17
2022-10-10T20:15:20.714Z,31.27
2022-10-10T20:18:07.626Z,32.85
2022-10-10T20:20:47.619Z,28.38
2022-10-10T20:23:41.651Z,26.85
2022-10-10T20:26:29.621Z,23.05
2022-10-10T20:29:03.726Z,22.40
2022-10-10T20:31:50.620Z,24.48
2022-10-10T20:34:30.602Z,23.55
2022-10-10T20:37:24.632Z,22.60
2022-10-10T20:40:11.633Z,28.52
2022-10-10T20:42:44.941Z,23.17
2022-10-10T20:45:31.636Z,21.98
2022-10-10T20:48:11.652Z,22.60
2022-10-10T20:50:58.647Z,21.10
2022-10-10T20:53:31.724Z,19.52
2022-10-10T20:56:19.653Z,21.65
2022-10-10T20:58:53.673Z,23.35
2022-10-10T21:01:41.715Z,25.52
2022-10-10T21:04:23.646Z,23.45
2022-10-10T21:07:17.655Z,22.17
2022-10-10T21:10:11.646Z,23.85
2022-10-10T21:12:58.633Z,22.23
2022-10-10T21:15:31.754Z,22.85
2022-10-10T21:18:18.645Z,22.92
2022-10-10T21:20:51.781Z,22.73
2022-10-10T21:23:50.087Z,23.92
2022-10-10T21:26:35.637Z,23.48
2022-10-10T21:29:22.662Z,23.40
2022-10-10T21:32:02.632Z,22.08
2022-10-10T21:34:56.687Z,22.30
2022-10-10T21:37:43.650Z,22.75
2022-10-10T21:40:24.661Z,22.95
2022-10-10T21:43:18.660Z,24.90
2022-10-10T21:46:13.633Z,21.55
2022-10-10T21:48:53.661Z,24.83
2022-10-10T21:51:52.656Z,24.02
2022-10-10T21:54:39.667Z,22.00
2022-10-10T21:57:12.726Z,24.15
2022-10-10T21:59:59.682Z,24.83
2022-10-10T22:02:32.749Z,26.95
2022-10-10T22:05:20.655Z,26.65
2022-10-10T22:08:00.659Z,28.88
2022-10-10T22:10:57.655Z,26.77
2022-10-10T22:13:44.694Z,28.90
2022-10-10T22:16:17.777Z,26.42
2022-10-10T22:19:04.690Z,23.25
2022-10-10T22:21:38.749Z,20.48
2022-10-10T22:24:25.683Z,23.55
2022-10-10T22:26:58.769Z,24.15
2022-10-10T22:29:45.682Z,23.98
2022-10-10T22:32:25.681Z,23.30
2022-10-10T22:35:12.706Z,23.15
2022-10-10T22:37:52.666Z,22.33
2022-10-10T22:40:46.719Z,21.70
2022-10-10T22:43:40.682Z,22.80
2022-10-10T22:46:34.689Z,21.42
2022-10-10T22:49:21.688Z,22.50
2022-10-10T22:51:54.771Z,22.08
2022-10-10T22:54:41.691Z,21.83
2022-10-10T22:57:14.730Z,24.17
2022-10-10T23:00:01.700Z,24.38
2022-10-10T23:02:34.753Z,22.67
2022-10-10T23:05:21.709Z,23.10
2022-10-10T23:07:54.795Z,23.35
2022-10-10T23:10:41.679Z,22.00
2022-10-10T23:13:14.757Z,21.08
2022-10-10T23:16:01.967Z,21.85
2022-10-10T23:18:35.784Z,22.35
2022-10-10T23:21:29.695Z,20.48
2022-10-10T23:24:23.709Z,19.98
2022-10-10T23:27:17.715Z,20.77
2022-10-10T23:30:11.671Z,18.98
2022-10-10T23:32:58.707Z,19.58
2022-10-10T23:35:31.758Z,19.70
2022-10-10T23:38:18.715Z,18.98
2022-10-10T23:40:58.740Z,19.45
2022-10-10T23:43:52.700Z,20.35
2022-10-10T23:46:46.692Z,19.08
2022-10-10T23:49:40.704Z,19.35
2022-10-10T23:52:27.723Z,19.15
2022-10-10T23:55:07.704Z,20.95
2022-10-10T23:57:54.732Z,20.55
